sensor_id;sensor_type;location;lat;lon;timestamp;P1;durP1;ratioP1;P2;durP2;ratioP2
35424;SDS011;21537;48.226;16.400;2022-08-01T00:00:12;6.78;;;3.50;;
35424;SDS011;21537;48.226;16.400;2022-08-01T00:02:39;6.18;;;3.60;;
35424;SDS011;21537;48.226;16.400;2022-08-01T00:05:05;5.85;;;3.50;;
35424;SDS011;21537;48.226;16.400;2022-08-01T00:07:33;4.43;;;3.47;;
35424;SDS011;21537;48.226;16.400;2022-08-01T00:09:59;4.97;;;3.53;;
35424;SDS011;21537;48.226;16.400;2022-08-01T00:12:26;6.72;;;3.78;;
35424;SDS011;21537;48.226;16.400;2022-08-01T00:14:51;4.70;;;3.80;;
35424;SDS011;21537;48.226;16.400;2022-08-01T00:17:17;11.38;;;4.38;;
35424;SDS011;21537;48.226;16.400;2022-08-01T00:19:43;6.80;;;3.97;;
35424;SDS011;21537;48.226;16.400;2022-08-01T00:22:09;6.15;;;4.35;;
35424;SDS011;21537;48.226;16.400;2022-08-01T00:24:35;7.03;;;4.03;;
35424;SDS011;21537;48.226;16.400;2022-08-01T00:27:00;7.03;;;4.25;;
35424;SDS011;21537;48.226;16.400;2022-08-01T00:29:26;5.75;;;4.32;;
35424;SDS011;21537;48.226;16.400;2022-08-01T00:31:52;5.80;;;4.07;;
35424;SDS011;21537;48.226;16.400;2022-08-01T00:34:18;5.47;;;3.70;;
35424;SDS011;21537;48.226;16.400;2022-08-01T00:36:44;7.45;;;4.22;;
35424;SDS011;21537;48.226;16.400;2022-08-01T00:39:09;5.72;;;3.88;;
35424;SDS011;21537;48.226;16.400;2022-08-01T00:41:35;5.00;;;3.60;;
35424;SDS011;21537;48.226;16.400;2022-08-01T00:44:02;5.35;;;4.07;;
35424;SDS011;21537;48.226;16.400;2022-08-01T00:46:29;4.95;;;3.35;;
35424;SDS011;21537;48.226;16.400;2022-08-01T00:48:56;6.82;;;3.30;;
35424;SDS011;21537;48.226;16.400;2022-08-01T00:51:22;4.50;;;3.80;;
35424;SDS011;21537;48.226;16.400;2022-08-01T00:53:50;5.05;;;3.63;;
35424;SDS011;21537;48.226;16.400;2022-08-01T00:56:16;5.18;;;3.30;;
35424;SDS011;21537;48.226;16.400;2022-08-01T00:58:43;6.10;;;3.85;;
35424;SDS011;21537;48.226;16.400;2022-08-01T01:01:09;6.68;;;3.67;;
35424;SDS011;21537;48.226;16.400;2022-08-01T01:03:35;6.20;;;3.88;;
35424;SDS011;21537;48.226;16.400;2022-08-01T01:06:05;4.60;;;3.72;;
35424;SDS011;21537;48.226;16.400;2022-08-01T01:08:41;5.20;;;3.58;;
35424;SDS011;21537;48.226;16.400;2022-08-01T01:11:15;4.65;;;3.90;;
35424;SDS011;21537;48.226;16.400;2022-08-01T01:13:49;5.63;;;4.03;;
35424;SDS011;21537;48.226;16.400;2022-08-01T01:16:20;6.65;;;4.25;;
35424;SDS011;21537;48.226;16.400;2022-08-01T01:26:48;7.10;;;3.88;;
35424;SDS011;21537;48.226;16.400;2022-08-01T01:34:59;4.70;;;3.75;;
35424;SDS011;21537;48.226;16.400;2022-08-01T01:37:31;7.07;;;3.78;;
35424;SDS011;21537;48.226;16.400;2022-08-01T01:39:59;7.53;;;4.07;;
35424;SDS011;21537;48.226;16.400;2022-08-01T01:42:28;7.10;;;3.90;;
35424;SDS011;21537;48.226;16.400;2022-08-01T01:44:55;4.03;;;3.63;;
35424;SDS011;21537;48.226;16.400;2022-08-01T01:47:23;8.35;;;4.20;;
35424;SDS011;21537;48.226;16.400;2022-08-01T01:49:50;4.57;;;3.70;;
35424;SDS011;21537;48.226;16.400;2022-08-01T01:52:19;7.65;;;3.60;;
35424;SDS011;21537;48.226;16.400;2022-08-01T01:54:46;8.20;;;3.75;;
35424;SDS011;21537;48.226;16.400;2022-08-01T01:57:14;4.88;;;4.28;;
35424;SDS011;21537;48.226;16.400;2022-08-01T01:59:42;5.90;;;4.32;;
35424;SDS011;21537;48.226;16.400;2022-08-01T02:02:09;5.70;;;3.72;;
35424;SDS011;21537;48.226;16.400;2022-08-01T02:04:37;7.30;;;3.90;;
35424;SDS011;21537;48.226;16.400;2022-08-01T02:07:09;5.78;;;4.00;;
35424;SDS011;21537;48.226;16.400;2022-08-01T02:09:38;14.80;;;4.13;;
35424;SDS011;21537;48.226;16.400;2022-08-01T02:12:06;5.72;;;4.00;;
35424;SDS011;21537;48.226;16.400;2022-08-01T02:14:35;7.10;;;4.00;;
35424;SDS011;21537;48.226;16.400;2022-08-01T02:17:02;5.13;;;3.88;;
35424;SDS011;21537;48.226;16.400;2022-08-01T02:19:32;7.18;;;4.03;;
35424;SDS011;21537;48.226;16.400;2022-08-01T02:22:00;5.50;;;3.63;;
35424;SDS011;21537;48.226;16.400;2022-08-01T02:24:37;4.03;;;3.60;;
35424;SDS011;21537;48.226;16.400;2022-08-01T02:27:08;6.80;;;3.70;;
35424;SDS011;21537;48.226;16.400;2022-08-01T02:29:45;7.85;;;4.25;;
35424;SDS011;21537;48.226;16.400;2022-08-01T02:32:26;7.45;;;4.05;;
35424;SDS011;21537;48.226;16.400;2022-08-01T02:34:56;5.03;;;3.85;;
35424;SDS011;21537;48.226;16.400;2022-08-01T02:37:24;9.13;;;3.95;;
35424;SDS011;21537;48.226;16.400;2022-08-01T02:39:54;4.85;;;3.28;;
35424;SDS011;21537;48.226;16.400;2022-08-01T02:42:21;5.78;;;3.80;;
35424;SDS011;21537;48.226;16.400;2022-08-01T02:44:49;4.65;;;3.45;;
35424;SDS011;21537;48.226;16.400;2022-08-01T02:47:17;8.95;;;3.40;;
35424;SDS011;21537;48.226;16.400;2022-08-01T02:49:46;7.95;;;3.60;;
35424;SDS011;21537;48.226;16.400;2022-08-01T02:52:14;8.38;;;3.97;;
35424;SDS011;21537;48.226;16.400;2022-08-01T02:54:47;7.43;;;4.00;;
35424;SDS011;21537;48.226;16.400;2022-08-01T02:57:14;5.15;;;3.53;;
35424;SDS011;21537;48.226;16.400;2022-08-01T02:59:43;4.95;;;3.40;;
35424;SDS011;21537;48.226;16.400;2022-08-01T03:02:11;5.03;;;3.60;;
35424;SDS011;21537;48.226;16.400;2022-08-01T03:04:38;3.75;;;3.40;;
35424;SDS011;21537;48.226;16.400;2022-08-01T03:07:06;7.60;;;3.67;;
35424;SDS011;21537;48.226;16.400;2022-08-01T03:09:38;9.30;;;3.47;;
35424;SDS011;21537;48.226;16.400;2022-08-01T03:12:09;6.18;;;3.60;;
35424;SDS011;21537;48.226;16.400;2022-08-01T03:14:39;9.20;;;3.70;;
35424;SDS011;21537;48.226;16.400;2022-08-01T03:17:07;5.05;;;3.88;;
35424;SDS011;21537;48.226;16.400;2022-08-01T03:19:35;5.05;;;3.38;;
35424;SDS011;21537;48.226;16.400;2022-08-01T03:22:03;5.55;;;3.53;;
35424;SDS011;21537;48.226;16.400;2022-08-01T03:24:32;4.85;;;3.58;;
35424;SDS011;21537;48.226;16.400;2022-08-01T03:26:59;4.30;;;3.45;;
35424;SDS011;21537;48.226;16.400;2022-08-01T03:29:27;5.45;;;3.55;;
35424;SDS011;21537;48.226;16.400;2022-08-01T03:31:55;6.25;;;4.00;;
35424;SDS011;21537;48.226;16.400;2022-08-01T03:34:22;5.57;;;3.33;;
35424;SDS011;21537;48.226;16.400;2022-08-01T03:36:53;3.83;;;3.28;;
35424;SDS011;21537;48.226;16.400;2022-08-01T03:39:28;3.92;;;3.50;;
35424;SDS011;21537;48.226;16.400;2022-08-01T03:41:59;9.68;;;4.32;;
35424;SDS011;21537;48.226;16.400;2022-08-01T03:44:30;6.30;;;4.45;;
35424;SDS011;21537;48.226;16.400;2022-08-01T03:46:59;6.03;;;3.88;;
35424;SDS011;21537;48.226;16.400;2022-08-01T03:49:31;10.63;;;4.22;;
35424;SDS011;21537;48.226;16.400;2022-08-01T03:52:03;9.07;;;4.22;;
35424;SDS011;21537;48.226;16.400;2022-08-01T03:54:34;8.93;;;4.22;;
35424;SDS011;21537;48.226;16.400;2022-08-01T03:57:02;5.35;;;4.10;;
35424;SDS011;21537;48.226;16.400;2022-08-01T03:59:31;6.57;;;4.20;;
35424;SDS011;21537;48.226;16.400;2022-08-01T04:01:59;6.95;;;4.18;;
35424;SDS011;21537;48.226;16.400;2022-08-01T04:04:26;9.02;;;4.15;;
35424;SDS011;21537;48.226;16.400;2022-08-01T04:06:53;6.28;;;4.20;;
35424;SDS011;21537;48.226;16.400;2022-08-01T04:09:20;6.97;;;4.07;;
35424;SDS011;21537;48.226;16.400;2022-08-01T04:11:49;5.60;;;3.85;;
35424;SDS011;21537;48.226;16.400;2022-08-01T04:14:15;5.55;;;4.20;;
35424;SDS011;21537;48.226;16.400;2022-08-01T04:16:41;6.90;;;4.30;;
35424;SDS011;21537;48.226;16.400;2022-08-01T04:19:07;7.45;;;4.22;;
35424;SDS011;21537;48.226;16.400;2022-08-01T04:21:33;5.40;;;3.95;;
35424;SDS011;21537;48.226;16.400;2022-08-01T04:24:05;4.88;;;4.10;;
35424;SDS011;21537;48.226;16.400;2022-08-01T04:29:02;5.82;;;3.88;;
35424;SDS011;21537;48.226;16.400;2022-08-01T04:31:31;8.48;;;3.90;;
35424;SDS011;21537;48.226;16.400;2022-08-01T04:33:57;5.95;;;4.28;;
35424;SDS011;21537;48.226;16.400;2022-08-01T04:36:26;6.22;;;4.57;;
35424;SDS011;21537;48.226;16.400;2022-08-01T04:38:56;7.80;;;4.05;;
35424;SDS011;21537;48.226;16.400;2022-08-01T04:41:25;6.25;;;4.10;;
35424;SDS011;21537;48.226;16.400;2022-08-01T04:43:51;8.10;;;4.32;;
35424;SDS011;21537;48.226;16.400;2022-08-01T04:46:20;4.85;;;3.92;;
35424;SDS011;21537;48.226;16.400;2022-08-01T04:48:46;5.05;;;3.53;;
35424;SDS011;21537;48.226;16.400;2022-08-01T04:51:14;5.53;;;3.53;;
35424;SDS011;21537;48.226;16.400;2022-08-01T04:53:41;7.85;;;4.25;;
35424;SDS011;21537;48.226;16.400;2022-08-01T04:56:07;5.05;;;3.92;;
35424;SDS011;21537;48.226;16.400;2022-08-01T04:58:33;4.18;;;2.97;;
35424;SDS011;21537;48.226;16.400;2022-08-01T05:01:00;8.18;;;3.22;;
35424;SDS011;21537;48.226;16.400;2022-08-01T05:03:25;6.00;;;3.13;;
35424;SDS011;21537;48.226;16.400;2022-08-01T05:05:51;5.15;;;3.40;;
35424;SDS011;21537;48.226;16.400;2022-08-01T05:08:17;8.55;;;3.10;;
35424;SDS011;21537;48.226;16.400;2022-08-01T05:10:43;5.10;;;2.80;;
35424;SDS011;21537;48.226;16.400;2022-08-01T05:13:08;13.27;;;3.15;;
35424;SDS011;21537;48.226;16.400;2022-08-01T05:15:35;6.18;;;2.92;;
35424;SDS011;21537;48.226;16.400;2022-08-01T05:18:04;5.65;;;2.60;;
35424;SDS011;21537;48.226;16.400;2022-08-01T05:20:30;5.68;;;2.60;;
35424;SDS011;21537;48.226;16.400;2022-08-01T05:22:56;3.25;;;2.50;;
35424;SDS011;21537;48.226;16.400;2022-08-01T05:25:23;4.65;;;3.15;;
35424;SDS011;21537;48.226;16.400;2022-08-01T05:27:49;4.32;;;3.03;;
35424;SDS011;21537;48.226;16.400;2022-08-01T05:30:15;3.90;;;3.00;;
35424;SDS011;21537;48.226;16.400;2022-08-01T05:32:41;8.40;;;3.03;;
35424;SDS011;21537;48.226;16.400;2022-08-01T05:35:07;5.88;;;3.13;;
35424;SDS011;21537;48.226;16.400;2022-08-01T05:37:33;6.28;;;3.88;;
35424;SDS011;21537;48.226;16.400;2022-08-01T05:39:59;4.97;;;3.53;;
35424;SDS011;21537;48.226;16.400;2022-08-01T05:42:26;6.63;;;3.72;;
35424;SDS011;21537;48.226;16.400;2022-08-01T05:44:51;8.30;;;4.00;;
35424;SDS011;21537;48.226;16.400;2022-08-01T05:47:17;7.78;;;4.03;;
35424;SDS011;21537;48.226;16.400;2022-08-01T05:49:44;8.13;;;3.42;;
35424;SDS011;21537;48.226;16.400;2022-08-01T05:52:10;6.63;;;3.17;;
35424;SDS011;21537;48.226;16.400;2022-08-01T05:54:36;12.48;;;3.60;;
35424;SDS011;21537;48.226;16.400;2022-08-01T05:57:02;7.63;;;3.33;;
35424;SDS011;21537;48.226;16.400;2022-08-01T05:59:28;4.45;;;2.90;;
35424;SDS011;21537;48.226;16.400;2022-08-01T06:01:55;8.05;;;3.90;;
35424;SDS011;21537;48.226;16.400;2022-08-01T06:04:20;8.35;;;4.40;;
35424;SDS011;21537;48.226;16.400;2022-08-01T06:06:46;10.93;;;3.42;;
35424;SDS011;21537;48.226;16.400;2022-08-01T06:09:12;10.13;;;3.33;;
35424;SDS011;21537;48.226;16.400;2022-08-01T06:11:38;3.95;;;2.72;;
35424;SDS011;21537;48.226;16.400;2022-08-01T06:14:04;6.25;;;2.88;;
35424;SDS011;21537;48.226;16.400;2022-08-01T06:16:29;10.07;;;3.17;;
35424;SDS011;21537;48.226;16.400;2022-08-01T06:18:55;4.32;;;2.92;;
35424;SDS011;21537;48.226;16.400;2022-08-01T06:21:21;5.45;;;2.83;;
35424;SDS011;21537;48.226;16.400;2022-08-01T06:23:47;7.03;;;2.83;;
35424;SDS011;21537;48.226;16.400;2022-08-01T06:26:13;5.10;;;2.67;;
35424;SDS011;21537;48.226;16.400;2022-08-01T06:28:38;10.80;;;2.85;;
35424;SDS011;21537;48.226;16.400;2022-08-01T06:31:04;5.18;;;2.97;;
35424;SDS011;21537;48.226;16.400;2022-08-01T06:33:30;6.97;;;2.90;;
35424;SDS011;21537;48.226;16.400;2022-08-01T06:35:56;6.00;;;2.90;;
35424;SDS011;21537;48.226;16.400;2022-08-01T06:38:22;7.57;;;3.20;;
35424;SDS011;21537;48.226;16.400;2022-08-01T06:40:49;4.10;;;2.80;;
35424;SDS011;21537;48.226;16.400;2022-08-01T06:43:15;11.73;;;8.10;;
35424;SDS011;21537;48.226;16.400;2022-08-01T06:45:41;7.65;;;5.32;;
35424;SDS011;21537;48.226;16.400;2022-08-01T06:48:07;6.45;;;2.88;;
35424;SDS011;21537;48.226;16.400;2022-08-01T06:50:33;4.88;;;3.20;;
35424;SDS011;21537;48.226;16.400;2022-08-01T06:53:00;5.85;;;2.80;;
35424;SDS011;21537;48.226;16.400;2022-08-01T06:55:26;8.93;;;2.83;;
35424;SDS011;21537;48.226;16.400;2022-08-01T06:57:52;12.38;;;3.40;;
35424;SDS011;21537;48.226;16.400;2022-08-01T07:00:19;8.27;;;3.33;;
35424;SDS011;21537;48.226;16.400;2022-08-01T07:02:56;6.60;;;3.15;;
35424;SDS011;21537;48.226;16.400;2022-08-01T07:05:24;8.75;;;3.30;;
35424;SDS011;21537;48.226;16.400;2022-08-01T07:07:50;10.48;;;2.97;;
35424;SDS011;21537;48.226;16.400;2022-08-01T07:10:16;5.38;;;2.60;;
35424;SDS011;21537;48.226;16.400;2022-08-01T07:12:42;4.93;;;2.92;;
35424;SDS011;21537;48.226;16.400;2022-08-01T07:15:08;6.18;;;2.90;;
35424;SDS011;21537;48.226;16.400;2022-08-01T07:17:39;6.40;;;3.85;;
35424;SDS011;21537;48.226;16.400;2022-08-01T07:20:09;6.78;;;2.70;;
35424;SDS011;21537;48.226;16.400;2022-08-01T07:22:37;4.78;;;2.78;;
35424;SDS011;21537;48.226;16.400;2022-08-01T07:25:04;6.65;;;2.80;;
35424;SDS011;21537;48.226;16.400;2022-08-01T07:27:30;6.30;;;3.20;;
35424;SDS011;21537;48.226;16.400;2022-08-01T07:29:56;6.65;;;3.30;;
35424;SDS011;21537;48.226;16.400;2022-08-01T07:32:22;4.15;;;2.60;;
35424;SDS011;21537;48.226;16.400;2022-08-01T07:34:48;4.75;;;2.72;;
35424;SDS011;21537;48.226;16.400;2022-08-01T07:37:14;7.75;;;3.00;;
35424;SDS011;21537;48.226;16.400;2022-08-01T07:39:42;6.03;;;3.10;;
35424;SDS011;21537;48.226;16.400;2022-08-01T07:42:08;5.47;;;3.90;;
35424;SDS011;21537;48.226;16.400;2022-08-01T07:44:34;5.15;;;2.70;;
35424;SDS011;21537;48.226;16.400;2022-08-01T07:47:00;11.85;;;2.78;;
35424;SDS011;21537;48.226;16.400;2022-08-01T07:49:26;8.57;;;3.00;;
35424;SDS011;21537;48.226;16.400;2022-08-01T07:51:52;5.25;;;3.35;;
35424;SDS011;21537;48.226;16.400;2022-08-01T07:54:19;5.65;;;3.03;;
35424;SDS011;21537;48.226;16.400;2022-08-01T07:56:45;4.93;;;2.97;;
35424;SDS011;21537;48.226;16.400;2022-08-01T07:59:11;7.85;;;3.17;;
35424;SDS011;21537;48.226;16.400;2022-08-01T08:01:36;16.10;;;8.38;;
35424;SDS011;21537;48.226;16.400;2022-08-01T08:04:02;12.10;;;7.18;;
35424;SDS011;21537;48.226;16.400;2022-08-01T08:06:28;8.77;;;3.30;;
35424;SDS011;21537;48.226;16.400;2022-08-01T08:08:54;5.65;;;2.95;;
35424;SDS011;21537;48.226;16.400;2022-08-01T08:11:20;11.85;;;5.75;;
35424;SDS011;21537;48.226;16.400;2022-08-01T08:13:45;5.10;;;3.75;;
35424;SDS011;21537;48.226;16.400;2022-08-01T08:16:11;7.07;;;3.40;;
35424;SDS011;21537;48.226;16.400;2022-08-01T08:18:37;8.45;;;3.15;;
35424;SDS011;21537;48.226;16.400;2022-08-01T08:21:03;11.10;;;3.45;;
35424;SDS011;21537;48.226;16.400;2022-08-01T08:23:29;6.60;;;3.53;;
35424;SDS011;21537;48.226;16.400;2022-08-01T08:26:13;6.85;;;3.92;;
35424;SDS011;21537;48.226;16.400;2022-08-01T08:28:41;8.45;;;2.90;;
35424;SDS011;21537;48.226;16.400;2022-08-01T08:31:12;12.05;;;3.45;;
35424;SDS011;21537;48.226;16.400;2022-08-01T08:33:38;6.32;;;3.20;;
35424;SDS011;21537;48.226;16.400;2022-08-01T08:36:03;7.10;;;3.03;;
35424;SDS011;21537;48.226;16.400;2022-08-01T08:38:29;7.97;;;3.00;;
35424;SDS011;21537;48.226;16.400;2022-08-01T08:41:37;7.97;;;2.42;;
35424;SDS011;21537;48.226;16.400;2022-08-01T08:44:04;11.98;;;3.13;;
35424;SDS011;21537;48.226;16.400;2022-08-01T08:46:31;4.30;;;2.15;;
35424;SDS011;21537;48.226;16.400;2022-08-01T08:49:02;6.50;;;2.53;;
35424;SDS011;21537;48.226;16.400;2022-08-01T08:51:30;4.03;;;2.67;;
35424;SDS011;21537;48.226;16.400;2022-08-01T08:53:59;4.82;;;3.05;;
35424;SDS011;21537;48.226;16.400;2022-08-01T08:56:27;5.53;;;2.70;;
35424;SDS011;21537;48.226;16.400;2022-08-01T08:58:58;5.80;;;2.35;;
35424;SDS011;21537;48.226;16.400;2022-08-01T09:01:26;4.47;;;2.47;;
35424;SDS011;21537;48.226;16.400;2022-08-01T09:03:52;4.90;;;2.30;;
35424;SDS011;21537;48.226;16.400;2022-08-01T09:06:19;5.15;;;2.35;;
35424;SDS011;21537;48.226;16.400;2022-08-01T09:08:45;4.07;;;2.50;;
35424;SDS011;21537;48.226;16.400;2022-08-01T09:11:11;4.70;;;2.28;;
35424;SDS011;21537;48.226;16.400;2022-08-01T09:13:37;6.13;;;2.95;;
35424;SDS011;21537;48.226;16.400;2022-08-01T09:16:03;5.85;;;2.28;;
35424;SDS011;21537;48.226;16.400;2022-08-01T09:18:39;8.80;;;2.80;;
35424;SDS011;21537;48.226;16.400;2022-08-01T09:23:51;6.70;;;2.65;;
35424;SDS011;21537;48.226;16.400;2022-08-01T09:26:41;3.17;;;2.45;;
35424;SDS011;21537;48.226;16.400;2022-08-01T09:29:06;4.55;;;2.17;;
35424;SDS011;21537;48.226;16.400;2022-08-01T09:31:40;3.20;;;2.22;;
35424;SDS011;21537;48.226;16.400;2022-08-01T09:34:06;10.63;;;2.85;;
35424;SDS011;21537;48.226;16.400;2022-08-01T09:36:47;3.53;;;2.50;;
35424;SDS011;21537;48.226;16.400;2022-08-01T09:39:17;7.20;;;2.40;;
35424;SDS011;21537;48.226;16.400;2022-08-01T09:41:44;6.13;;;2.67;;
35424;SDS011;21537;48.226;16.400;2022-08-01T09:44:11;9.57;;;2.80;;
35424;SDS011;21537;48.226;16.400;2022-08-01T09:46:48;3.05;;;2.22;;
35424;SDS011;21537;48.226;16.400;2022-08-01T09:49:30;8.40;;;2.75;;
35424;SDS011;21537;48.226;16.400;2022-08-01T09:51:59;3.25;;;2.53;;
35424;SDS011;21537;48.226;16.400;2022-08-01T09:54:43;9.23;;;2.42;;
35424;SDS011;21537;48.226;16.400;2022-08-01T09:57:17;4.53;;;2.60;;
35424;SDS011;21537;48.226;16.400;2022-08-01T09:59:44;4.53;;;2.58;;
35424;SDS011;21537;48.226;16.400;2022-08-01T10:02:12;4.53;;;2.58;;
35424;SDS011;21537;48.226;16.400;2022-08-01T10:04:47;4.82;;;2.40;;
35424;SDS011;21537;48.226;16.400;2022-08-01T10:07:14;2.75;;;2.00;;
35424;SDS011;21537;48.226;16.400;2022-08-01T10:09:41;7.20;;;2.65;;
35424;SDS011;21537;48.226;16.400;2022-08-01T10:12:08;4.07;;;2.50;;
35424;SDS011;21537;48.226;16.400;2022-08-01T10:14:36;3.08;;;2.53;;
35424;SDS011;21537;48.226;16.400;2022-08-01T10:17:02;3.45;;;2.13;;
35424;SDS011;21537;48.226;16.400;2022-08-01T10:19:32;3.35;;;2.25;;
35424;SDS011;21537;48.226;16.400;2022-08-01T10:22:01;8.05;;;2.20;;
35424;SDS011;21537;48.226;16.400;2022-08-01T10:24:33;5.05;;;2.28;;
35424;SDS011;21537;48.226;16.400;2022-08-01T10:27:03;3.97;;;2.70;;
35424;SDS011;21537;48.226;16.400;2022-08-01T10:29:46;3.30;;;2.50;;
35424;SDS011;21537;48.226;16.400;2022-08-01T10:32:17;4.55;;;2.47;;
35424;SDS011;21537;48.226;16.400;2022-08-01T10:34:43;5.70;;;2.65;;
35424;SDS011;21537;48.226;16.400;2022-08-01T10:37:10;4.50;;;2.90;;
35424;SDS011;21537;48.226;16.400;2022-08-01T10:39:39;2.85;;;2.20;;
35424;SDS011;21537;48.226;16.400;2022-08-01T10:42:05;9.27;;;2.53;;
35424;SDS011;21537;48.226;16.400;2022-08-01T10:44:34;4.03;;;2.80;;
35424;SDS011;21537;48.226;16.400;2022-08-01T10:47:04;6.20;;;2.47;;
35424;SDS011;21537;48.226;16.400;2022-08-01T10:49:58;2.88;;;1.92;;
35424;SDS011;21537;48.226;16.400;2022-08-01T10:52:32;4.57;;;2.65;;
35424;SDS011;21537;48.226;16.400;2022-08-01T10:55:08;4.80;;;2.20;;
35424;SDS011;21537;48.226;16.400;2022-08-01T10:57:45;1.95;;;1.75;;
35424;SDS011;21537;48.226;16.400;2022-08-01T11:00:19;4.07;;;1.90;;
35424;SDS011;21537;48.226;16.400;2022-08-01T11:02:59;2.70;;;2.00;;
35424;SDS011;21537;48.226;16.400;2022-08-01T11:05:35;2.20;;;2.00;;
35424;SDS011;21537;48.226;16.400;2022-08-01T11:08:03;3.88;;;2.10;;
35424;SDS011;21537;48.226;16.400;2022-08-01T11:10:40;2.85;;;1.92;;
35424;SDS011;21537;48.226;16.400;2022-08-01T11:13:10;5.20;;;2.65;;
35424;SDS011;21537;48.226;16.400;2022-08-01T11:15:39;5.38;;;2.13;;
35424;SDS011;21537;48.226;16.400;2022-08-01T11:20:54;4.72;;;2.25;;
35424;SDS011;21537;48.226;16.400;2022-08-01T11:23:25;2.83;;;2.15;;
35424;SDS011;21537;48.226;16.400;2022-08-01T11:28:19;2.25;;;1.73;;
35424;SDS011;21537;48.226;16.400;2022-08-01T11:30:53;4.68;;;2.30;;
35424;SDS011;21537;48.226;16.400;2022-08-01T11:38:36;2.47;;;2.28;;
35424;SDS011;21537;48.226;16.400;2022-08-01T11:44:12;3.28;;;2.08;;
35424;SDS011;21537;48.226;16.400;2022-08-01T11:54:35;2.92;;;2.38;;
35424;SDS011;21537;48.226;16.400;2022-08-01T11:57:03;4.90;;;2.63;;
35424;SDS011;21537;48.226;16.400;2022-08-01T11:59:44;2.65;;;2.00;;
35424;SDS011;21537;48.226;16.400;2022-08-01T12:04:48;3.60;;;2.15;;
35424;SDS011;21537;48.226;16.400;2022-08-01T12:07:23;4.93;;;2.47;;
35424;SDS011;21537;48.226;16.400;2022-08-01T12:10:00;2.72;;;2.30;;
35424;SDS011;21537;48.226;16.400;2022-08-01T12:12:30;5.65;;;2.70;;
35424;SDS011;21537;48.226;16.400;2022-08-01T12:14:58;5.70;;;2.30;;
35424;SDS011;21537;48.226;16.400;2022-08-01T12:17:31;7.38;;;2.90;;
35424;SDS011;21537;48.226;16.400;2022-08-01T12:20:06;8.15;;;2.90;;
35424;SDS011;21537;48.226;16.400;2022-08-01T12:22:37;4.80;;;3.28;;
35424;SDS011;21537;48.226;16.400;2022-08-01T12:25:10;6.00;;;3.22;;
35424;SDS011;21537;48.226;16.400;2022-08-01T12:27:41;10.57;;;3.15;;
35424;SDS011;21537;48.226;16.400;2022-08-01T12:30:09;14.73;;;3.03;;
35424;SDS011;21537;48.226;16.400;2022-08-01T12:32:50;4.97;;;3.25;;
35424;SDS011;21537;48.226;16.400;2022-08-01T12:35:18;13.02;;;3.60;;
35424;SDS011;21537;48.226;16.400;2022-08-01T12:37:49;4.70;;;2.88;;
35424;SDS011;21537;48.226;16.400;2022-08-01T12:40:17;7.00;;;3.17;;
35424;SDS011;21537;48.226;16.400;2022-08-01T12:42:44;7.47;;;2.17;;
35424;SDS011;21537;48.226;16.400;2022-08-01T12:45:17;11.82;;;2.28;;
35424;SDS011;21537;48.226;16.400;2022-08-01T12:47:47;8.10;;;2.20;;
35424;SDS011;21537;48.226;16.400;2022-08-01T12:50:16;14.52;;;2.40;;
35424;SDS011;21537;48.226;16.400;2022-08-01T12:52:45;3.40;;;1.73;;
35424;SDS011;21537;48.226;16.400;2022-08-01T12:55:16;4.22;;;1.75;;
35424;SDS011;21537;48.226;16.400;2022-08-01T12:57:47;3.45;;;1.60;;
35424;SDS011;21537;48.226;16.400;2022-08-01T13:00:22;3.38;;;1.88;;
35424;SDS011;21537;48.226;16.400;2022-08-01T13:02:50;4.93;;;2.00;;
35424;SDS011;21537;48.226;16.400;2022-08-01T13:05:26;7.10;;;1.90;;
35424;SDS011;21537;48.226;16.400;2022-08-01T13:07:52;7.15;;;2.33;;
35424;SDS011;21537;48.226;16.400;2022-08-01T13:10:28;4.68;;;2.28;;
35424;SDS011;21537;48.226;16.400;2022-08-01T13:12:58;3.88;;;1.90;;
35424;SDS011;21537;48.226;16.400;2022-08-01T13:15:26;6.25;;;2.30;;
35424;SDS011;21537;48.226;16.400;2022-08-01T13:17:59;3.67;;;1.90;;
35424;SDS011;21537;48.226;16.400;2022-08-01T13:20:30;3.80;;;2.20;;
35424;SDS011;21537;48.226;16.400;2022-08-01T13:23:32;5.90;;;2.50;;
35424;SDS011;21537;48.226;16.400;2022-08-01T13:29:35;4.55;;;2.53;;
35424;SDS011;21537;48.226;16.400;2022-08-01T13:32:19;7.35;;;2.95;;
35424;SDS011;21537;48.226;16.400;2022-08-01T13:35:08;6.35;;;2.53;;
35424;SDS011;21537;48.226;16.400;2022-08-01T13:37:47;5.15;;;2.30;;
35424;SDS011;21537;48.226;16.400;2022-08-01T13:40:27;4.72;;;2.08;;
35424;SDS011;21537;48.226;16.400;2022-08-01T13:42:54;5.80;;;2.97;;
35424;SDS011;21537;48.226;16.400;2022-08-01T13:45:22;4.18;;;2.10;;
35424;SDS011;21537;48.226;16.400;2022-08-01T13:47:48;5.18;;;1.60;;
35424;SDS011;21537;48.226;16.400;2022-08-01T13:50:14;6.05;;;1.77;;
35424;SDS011;21537;48.226;16.400;2022-08-01T13:52:45;5.38;;;1.65;;
35424;SDS011;21537;48.226;16.400;2022-08-01T13:55:16;3.75;;;1.60;;
35424;SDS011;21537;48.226;16.400;2022-08-01T13:57:43;3.05;;;1.65;;
35424;SDS011;21537;48.226;16.400;2022-08-01T14:00:17;2.50;;;1.55;;
35424;SDS011;21537;48.226;16.400;2022-08-01T14:02:46;2.28;;;1.50;;
35424;SDS011;21537;48.226;16.400;2022-08-01T14:05:15;2.20;;;1.65;;
35424;SDS011;21537;48.226;16.400;2022-08-01T14:07:42;3.88;;;1.50;;
35424;SDS011;21537;48.226;16.400;2022-08-01T14:10:09;4.38;;;1.58;;
35424;SDS011;21537;48.226;16.400;2022-08-01T14:12:35;1.70;;;1.60;;
35424;SDS011;21537;48.226;16.400;2022-08-01T14:15:01;4.38;;;1.73;;
35424;SDS011;21537;48.226;16.400;2022-08-01T14:17:27;4.28;;;1.70;;
35424;SDS011;21537;48.226;16.400;2022-08-01T14:19:56;3.22;;;1.73;;
35424;SDS011;21537;48.226;16.400;2022-08-01T14:22:24;2.20;;;1.55;;
35424;SDS011;21537;48.226;16.400;2022-08-01T14:24:53;6.30;;;1.42;;
35424;SDS011;21537;48.226;16.400;2022-08-01T14:27:21;3.05;;;1.55;;
35424;SDS011;21537;48.226;16.400;2022-08-01T14:29:47;4.68;;;1.63;;
35424;SDS011;21537;48.226;16.400;2022-08-01T14:32:26;1.95;;;1.33;;
35424;SDS011;21537;48.226;16.400;2022-08-01T14:34:52;4.30;;;1.27;;
35424;SDS011;21537;48.226;16.400;2022-08-01T14:37:18;1.73;;;1.42;;
35424;SDS011;21537;48.226;16.400;2022-08-01T14:39:44;2.15;;;1.40;;
35424;SDS011;21537;48.226;16.400;2022-08-01T14:42:09;2.13;;;1.40;;
35424;SDS011;21537;48.226;16.400;2022-08-01T14:44:35;2.17;;;1.38;;
35424;SDS011;21537;48.226;16.400;2022-08-01T14:47:01;4.43;;;1.63;;
35424;SDS011;21537;48.226;16.400;2022-08-01T14:49:27;6.30;;;1.73;;
35424;SDS011;21537;48.226;16.400;2022-08-01T14:51:53;2.33;;;1.70;;
35424;SDS011;21537;48.226;16.400;2022-08-01T14:54:19;9.15;;;1.80;;
35424;SDS011;21537;48.226;16.400;2022-08-01T14:56:44;2.55;;;1.70;;
35424;SDS011;21537;48.226;16.400;2022-08-01T14:59:10;2.53;;;1.92;;
35424;SDS011;21537;48.226;16.400;2022-08-01T15:01:36;3.42;;;1.65;;
35424;SDS011;21537;48.226;16.400;2022-08-01T15:04:02;2.13;;;1.52;;
35424;SDS011;21537;48.226;16.400;2022-08-01T15:06:28;2.20;;;1.60;;
35424;SDS011;21537;48.226;16.400;2022-08-01T15:08:54;3.28;;;1.83;;
35424;SDS011;21537;48.226;16.400;2022-08-01T15:11:20;5.05;;;1.70;;
35424;SDS011;21537;48.226;16.400;2022-08-01T15:13:46;2.40;;;1.73;;
35424;SDS011;21537;48.226;16.400;2022-08-01T15:16:32;1.70;;;1.60;;
35424;SDS011;21537;48.226;16.400;2022-08-01T15:18:57;4.53;;;1.60;;
35424;SDS011;21537;48.226;16.400;2022-08-01T15:21:23;3.72;;;1.70;;
35424;SDS011;21537;48.226;16.400;2022-08-01T15:23:49;4.70;;;1.60;;
35424;SDS011;21537;48.226;16.400;2022-08-01T15:26:15;1.70;;;1.60;;
35424;SDS011;21537;48.226;16.400;2022-08-01T15:28:41;1.92;;;1.73;;